Sol Duc Hot Springs, Washington
Current Conditions -  °F | °C
As of 1:53 AM on Tuesday 21 Oct 2014 (Local Time) from KCLM Reporting Station
Overcast Overcast  
Wind Chill: 53°   Ceiling: 8500
Heat Index: 53°   Visibility: 10mi
Dew Point: 48°   Wind: 6mph
Humidity: 83%   Direction: 210°SSW
Pressure: 29.76"   Gusts: NA
Location:  48.0203°N, 123.478°W
Report Text: KCLM 210853Z AUTO 21005KT 10SM FEW070 OVC085 12/09 A2976 RMK AO2 RAB0757E37 SLP077 P0001 60001 T01170089 53004 TSNO $
Loading
Personal Weather Stations






























Interactive Weather Map
Tropical Storm Tracking
New forecast layout! Learn more

10-Day Weather Forecast

Advertisements
Track Severe Weather on mobile